Long Island, California
Current Conditions -  °F | °C
As of 1:58 PM on Monday 26 Jan 2015 (Local Time) from KSUU Reporting Station
Clear Clear  
Wind Chill: 62°   Ceiling: Unl
Heat Index: 62°   Visibility: 10mi
Dew Point: 49°   Wind: 5mph
Humidity: 61%   Direction: 40°NE
Pressure: 29.97"   Gusts: NA
Location:  38.2298°N, 121.579°W
Report Text: KSUU 262158Z AUTO 04004KT 10SM CLR 17/09 A2997 RMK AO2 SLP156 T01680092 $
Loading
Personal Weather Stations






























Interactive Weather Map New forecast layout! Learn more

10-Day Weather Forecast

Advertisements
Track Severe Weather on mobile